sensor_id;sensor_type;location;lat;lon;timestamp;P1;durP1;ratioP1;P2;durP2;ratioP2
63089;SDS011;49174;43.198;27.824;2023-09-18T00:00:48;7.20;;;4.28;;
63089;SDS011;49174;43.198;27.824;2023-09-18T00:03:17;7.90;;;4.10;;
63089;SDS011;49174;43.198;27.824;2023-09-18T00:05:45;6.28;;;4.00;;
63089;SDS011;49174;43.198;27.824;2023-09-18T00:08:11;6.38;;;4.55;;
63089;SDS011;49174;43.198;27.824;2023-09-18T00:10:36;10.38;;;4.55;;
63089;SDS011;49174;43.198;27.824;2023-09-18T00:13:02;8.32;;;3.83;;
63089;SDS011;49174;43.198;27.824;2023-09-18T00:15:29;7.45;;;4.28;;
63089;SDS011;49174;43.198;27.824;2023-09-18T00:17:55;8.20;;;4.35;;
63089;SDS011;49174;43.198;27.824;2023-09-18T00:20:21;7.63;;;4.10;;
63089;SDS011;49174;43.198;27.824;2023-09-18T00:22:55;7.40;;;3.83;;
63089;SDS011;49174;43.198;27.824;2023-09-18T00:25:24;5.45;;;3.83;;
63089;SDS011;49174;43.198;27.824;2023-09-18T00:27:50;5.50;;;3.97;;
63089;SDS011;49174;43.198;27.824;2023-09-18T00:30:17;8.95;;;4.38;;
63089;SDS011;49174;43.198;27.824;2023-09-18T00:32:42;6.40;;;3.90;;
63089;SDS011;49174;43.198;27.824;2023-09-18T00:35:08;9.00;;;4.07;;
63089;SDS011;49174;43.198;27.824;2023-09-18T00:37:34;13.00;;;4.30;;
63089;SDS011;49174;43.198;27.824;2023-09-18T00:40:01;9.07;;;4.30;;
63089;SDS011;49174;43.198;27.824;2023-09-18T00:42:27;7.88;;;4.03;;
63089;SDS011;49174;43.198;27.824;2023-09-18T00:44:52;8.18;;;4.45;;
63089;SDS011;49174;43.198;27.824;2023-09-18T00:47:18;11.20;;;4.85;;
63089;SDS011;49174;43.198;27.824;2023-09-18T00:49:45;6.65;;;4.05;;
63089;SDS011;49174;43.198;27.824;2023-09-18T00:52:14;7.30;;;3.95;;
63089;SDS011;49174;43.198;27.824;2023-09-18T00:54:40;8.55;;;4.30;;
63089;SDS011;49174;43.198;27.824;2023-09-18T00:57:08;5.90;;;3.88;;
63089;SDS011;49174;43.198;27.824;2023-09-18T00:59:35;8.00;;;4.03;;
63089;SDS011;49174;43.198;27.824;2023-09-18T01:02:02;8.20;;;4.25;;
63089;SDS011;49174;43.198;27.824;2023-09-18T01:04:28;8.27;;;3.65;;
63089;SDS011;49174;43.198;27.824;2023-09-18T01:06:55;10.27;;;4.63;;
63089;SDS011;49174;43.198;27.824;2023-09-18T01:09:23;6.75;;;4.28;;
63089;SDS011;49174;43.198;27.824;2023-09-18T01:15:01;5.47;;;4.07;;
63089;SDS011;49174;43.198;27.824;2023-09-18T01:17:24;5.30;;;4.07;;
63089;SDS011;49174;43.198;27.824;2023-09-18T01:19:51;8.18;;;4.07;;
63089;SDS011;49174;43.198;27.824;2023-09-18T01:22:17;6.25;;;4.13;;
63089;SDS011;49174;43.198;27.824;2023-09-18T01:24:45;5.60;;;4.10;;
63089;SDS011;49174;43.198;27.824;2023-09-18T01:27:13;6.55;;;3.75;;
63089;SDS011;49174;43.198;27.824;2023-09-18T01:29:39;5.90;;;3.88;;
63089;SDS011;49174;43.198;27.824;2023-09-18T01:32:05;9.23;;;4.20;;
63089;SDS011;49174;43.198;27.824;2023-09-18T01:34:35;10.48;;;4.80;;
63089;SDS011;49174;43.198;27.824;2023-09-18T01:37:04;6.78;;;4.15;;
63089;SDS011;49174;43.198;27.824;2023-09-18T01:39:33;7.50;;;4.68;;
63089;SDS011;49174;43.198;27.824;2023-09-18T01:42:01;5.78;;;4.38;;
63089;SDS011;49174;43.198;27.824;2023-09-18T01:44:29;7.10;;;4.30;;
63089;SDS011;49174;43.198;27.824;2023-09-18T01:46:56;6.35;;;4.32;;
63089;SDS011;49174;43.198;27.824;2023-09-18T01:49:34;6.45;;;4.32;;
63089;SDS011;49174;43.198;27.824;2023-09-18T01:52:02;6.65;;;4.55;;
63089;SDS011;49174;43.198;27.824;2023-09-18T01:54:29;6.60;;;4.43;;
63089;SDS011;49174;43.198;27.824;2023-09-18T01:56:55;6.63;;;4.55;;
63089;SDS011;49174;43.198;27.824;2023-09-18T01:59:21;8.13;;;4.82;;
63089;SDS011;49174;43.198;27.824;2023-09-18T02:01:47;5.35;;;4.50;;
63089;SDS011;49174;43.198;27.824;2023-09-18T02:04:14;7.05;;;5.07;;
63089;SDS011;49174;43.198;27.824;2023-09-18T02:06:41;6.10;;;3.97;;
63089;SDS011;49174;43.198;27.824;2023-09-18T02:09:07;8.02;;;4.82;;
63089;SDS011;49174;43.198;27.824;2023-09-18T02:11:36;9.40;;;4.63;;
63089;SDS011;49174;43.198;27.824;2023-09-18T02:14:06;8.55;;;4.93;;
63089;SDS011;49174;43.198;27.824;2023-09-18T02:16:33;8.00;;;5.03;;
63089;SDS011;49174;43.198;27.824;2023-09-18T02:18:59;6.38;;;4.63;;
63089;SDS011;49174;43.198;27.824;2023-09-18T02:21:25;6.47;;;4.95;;
63089;SDS011;49174;43.198;27.824;2023-09-18T02:23:51;7.30;;;4.95;;
63089;SDS011;49174;43.198;27.824;2023-09-18T02:26:18;9.27;;;4.88;;
63089;SDS011;49174;43.198;27.824;2023-09-18T02:28:44;6.20;;;4.55;;
63089;SDS011;49174;43.198;27.824;2023-09-18T02:31:09;7.32;;;4.93;;
63089;SDS011;49174;43.198;27.824;2023-09-18T02:33:35;5.75;;;4.18;;
63089;SDS011;49174;43.198;27.824;2023-09-18T02:36:01;5.85;;;4.93;;
63089;SDS011;49174;43.198;27.824;2023-09-18T02:38:27;6.13;;;4.30;;
63089;SDS011;49174;43.198;27.824;2023-09-18T02:40:53;5.38;;;4.47;;
63089;SDS011;49174;43.198;27.824;2023-09-18T02:43:19;5.32;;;4.30;;
63089;SDS011;49174;43.198;27.824;2023-09-18T02:45:45;6.38;;;4.75;;
63089;SDS011;49174;43.198;27.824;2023-09-18T02:48:11;8.23;;;3.90;;
63089;SDS011;49174;43.198;27.824;2023-09-18T02:50:36;8.20;;;4.75;;
63089;SDS011;49174;43.198;27.824;2023-09-18T02:53:02;5.15;;;4.60;;
63089;SDS011;49174;43.198;27.824;2023-09-18T02:55:28;7.75;;;4.63;;
63089;SDS011;49174;43.198;27.824;2023-09-18T02:57:54;4.22;;;3.83;;
63089;SDS011;49174;43.198;27.824;2023-09-18T03:00:19;7.78;;;5.38;;
63089;SDS011;49174;43.198;27.824;2023-09-18T03:02:46;5.65;;;4.15;;
63089;SDS011;49174;43.198;27.824;2023-09-18T03:05:11;8.68;;;4.43;;
63089;SDS011;49174;43.198;27.824;2023-09-18T03:07:37;6.85;;;5.25;;
63089;SDS011;49174;43.198;27.824;2023-09-18T03:10:02;7.50;;;4.78;;
63089;SDS011;49174;43.198;27.824;2023-09-18T03:12:30;8.30;;;4.68;;
63089;SDS011;49174;43.198;27.824;2023-09-18T03:14:56;5.45;;;4.88;;
63089;SDS011;49174;43.198;27.824;2023-09-18T03:17:22;7.10;;;4.80;;
63089;SDS011;49174;43.198;27.824;2023-09-18T03:19:49;10.32;;;5.25;;
63089;SDS011;49174;43.198;27.824;2023-09-18T03:22:15;5.70;;;4.97;;
63089;SDS011;49174;43.198;27.824;2023-09-18T03:24:41;9.02;;;5.70;;
63089;SDS011;49174;43.198;27.824;2023-09-18T03:27:06;6.97;;;4.90;;
63089;SDS011;49174;43.198;27.824;2023-09-18T03:29:32;6.22;;;4.75;;
63089;SDS011;49174;43.198;27.824;2023-09-18T03:31:58;7.50;;;5.65;;
63089;SDS011;49174;43.198;27.824;2023-09-18T03:34:24;6.93;;;5.57;;
63089;SDS011;49174;43.198;27.824;2023-09-18T03:36:53;6.90;;;5.32;;
63089;SDS011;49174;43.198;27.824;2023-09-18T03:39:19;6.43;;;5.35;;
63089;SDS011;49174;43.198;27.824;2023-09-18T03:41:45;8.23;;;5.68;;
63089;SDS011;49174;43.198;27.824;2023-09-18T03:44:11;7.28;;;5.40;;
63089;SDS011;49174;43.198;27.824;2023-09-18T03:46:36;6.80;;;5.75;;
63089;SDS011;49174;43.198;27.824;2023-09-18T03:49:02;7.32;;;5.75;;
63089;SDS011;49174;43.198;27.824;2023-09-18T03:51:31;6.88;;;5.50;;
63089;SDS011;49174;43.198;27.824;2023-09-18T03:53:56;8.57;;;5.47;;
63089;SDS011;49174;43.198;27.824;2023-09-18T03:56:22;6.05;;;5.28;;
63089;SDS011;49174;43.198;27.824;2023-09-18T03:58:47;8.07;;;5.47;;
63089;SDS011;49174;43.198;27.824;2023-09-18T04:01:17;6.18;;;5.00;;
63089;SDS011;49174;43.198;27.824;2023-09-18T04:03:43;7.55;;;5.60;;
63089;SDS011;49174;43.198;27.824;2023-09-18T04:06:09;6.28;;;5.63;;
63089;SDS011;49174;43.198;27.824;2023-09-18T04:08:35;6.75;;;6.07;;
63089;SDS011;49174;43.198;27.824;2023-09-18T04:11:01;8.63;;;5.82;;
63089;SDS011;49174;43.198;27.824;2023-09-18T04:13:29;7.55;;;5.63;;
63089;SDS011;49174;43.198;27.824;2023-09-18T04:15:54;8.57;;;5.78;;
63089;SDS011;49174;43.198;27.824;2023-09-18T04:18:22;5.93;;;5.32;;
63089;SDS011;49174;43.198;27.824;2023-09-18T04:20:48;9.73;;;6.35;;
63089;SDS011;49174;43.198;27.824;2023-09-18T04:23:19;8.35;;;5.78;;
63089;SDS011;49174;43.198;27.824;2023-09-18T04:25:50;7.72;;;6.53;;
63089;SDS011;49174;43.198;27.824;2023-09-18T04:28:16;10.05;;;6.65;;
63089;SDS011;49174;43.198;27.824;2023-09-18T04:30:44;8.07;;;5.60;;
63089;SDS011;49174;43.198;27.824;2023-09-18T04:33:10;6.72;;;5.80;;
63089;SDS011;49174;43.198;27.824;2023-09-18T04:35:37;12.25;;;6.68;;
63089;SDS011;49174;43.198;27.824;2023-09-18T04:38:05;7.28;;;6.47;;
63089;SDS011;49174;43.198;27.824;2023-09-18T04:40:32;9.65;;;7.15;;
63089;SDS011;49174;43.198;27.824;2023-09-18T04:42:58;8.35;;;5.90;;
63089;SDS011;49174;43.198;27.824;2023-09-18T04:45:24;9.10;;;6.85;;
63089;SDS011;49174;43.198;27.824;2023-09-18T04:47:51;11.40;;;6.95;;
63089;SDS011;49174;43.198;27.824;2023-09-18T04:50:17;10.20;;;6.20;;
63089;SDS011;49174;43.198;27.824;2023-09-18T04:52:42;10.55;;;6.72;;
63089;SDS011;49174;43.198;27.824;2023-09-18T04:55:09;7.72;;;6.13;;
63089;SDS011;49174;43.198;27.824;2023-09-18T04:57:35;8.48;;;6.60;;
63089;SDS011;49174;43.198;27.824;2023-09-18T05:00:01;10.00;;;6.13;;
63089;SDS011;49174;43.198;27.824;2023-09-18T05:02:28;7.80;;;5.20;;
63089;SDS011;49174;43.198;27.824;2023-09-18T05:04:55;7.15;;;4.80;;
63089;SDS011;49174;43.198;27.824;2023-09-18T05:07:21;8.00;;;4.93;;
63089;SDS011;49174;43.198;27.824;2023-09-18T05:09:47;7.40;;;4.18;;
63089;SDS011;49174;43.198;27.824;2023-09-18T05:12:12;8.15;;;4.97;;
63089;SDS011;49174;43.198;27.824;2023-09-18T05:14:41;7.25;;;5.10;;
63089;SDS011;49174;43.198;27.824;2023-09-18T05:17:09;6.25;;;3.95;;
63089;SDS011;49174;43.198;27.824;2023-09-18T05:19:37;7.63;;;4.28;;
63089;SDS011;49174;43.198;27.824;2023-09-18T05:22:04;5.72;;;4.15;;
63089;SDS011;49174;43.198;27.824;2023-09-18T05:24:29;10.30;;;4.72;;
63089;SDS011;49174;43.198;27.824;2023-09-18T05:26:55;7.13;;;4.43;;
63089;SDS011;49174;43.198;27.824;2023-09-18T05:29:20;7.70;;;4.57;;
63089;SDS011;49174;43.198;27.824;2023-09-18T05:31:46;8.52;;;4.50;;
63089;SDS011;49174;43.198;27.824;2023-09-18T05:34:12;6.13;;;3.58;;
63089;SDS011;49174;43.198;27.824;2023-09-18T05:36:38;7.30;;;4.38;;
63089;SDS011;49174;43.198;27.824;2023-09-18T05:39:05;8.82;;;4.25;;
63089;SDS011;49174;43.198;27.824;2023-09-18T05:41:35;6.00;;;4.30;;
63089;SDS011;49174;43.198;27.824;2023-09-18T05:44:01;10.88;;;4.05;;
63089;SDS011;49174;43.198;27.824;2023-09-18T05:46:29;8.50;;;4.20;;
63089;SDS011;49174;43.198;27.824;2023-09-18T05:48:54;7.22;;;4.30;;
63089;SDS011;49174;43.198;27.824;2023-09-18T05:51:22;10.00;;;4.30;;
63089;SDS011;49174;43.198;27.824;2023-09-18T05:53:48;7.75;;;4.30;;
63089;SDS011;49174;43.198;27.824;2023-09-18T05:56:13;6.25;;;3.70;;
63089;SDS011;49174;43.198;27.824;2023-09-18T05:58:39;11.02;;;6.13;;
63089;SDS011;49174;43.198;27.824;2023-09-18T06:01:06;6.20;;;3.67;;
63089;SDS011;49174;43.198;27.824;2023-09-18T06:03:32;8.07;;;4.40;;
63089;SDS011;49174;43.198;27.824;2023-09-18T06:06:04;8.13;;;4.40;;
63089;SDS011;49174;43.198;27.824;2023-09-18T06:08:30;4.40;;;3.35;;
63089;SDS011;49174;43.198;27.824;2023-09-18T06:10:59;5.70;;;3.50;;
63089;SDS011;49174;43.198;27.824;2023-09-18T06:13:25;5.55;;;3.95;;
63089;SDS011;49174;43.198;27.824;2023-09-18T06:15:51;8.32;;;3.90;;
63089;SDS011;49174;43.198;27.824;2023-09-18T06:18:19;4.75;;;3.70;;
63089;SDS011;49174;43.198;27.824;2023-09-18T06:20:47;5.65;;;3.70;;
63089;SDS011;49174;43.198;27.824;2023-09-18T06:23:13;5.82;;;3.22;;
63089;SDS011;49174;43.198;27.824;2023-09-18T06:25:39;6.65;;;3.78;;
63089;SDS011;49174;43.198;27.824;2023-09-18T06:28:06;9.18;;;3.80;;
63089;SDS011;49174;43.198;27.824;2023-09-18T06:30:32;4.32;;;3.30;;
63089;SDS011;49174;43.198;27.824;2023-09-18T06:33:00;5.40;;;3.67;;
63089;SDS011;49174;43.198;27.824;2023-09-18T06:35:26;5.00;;;2.95;;
63089;SDS011;49174;43.198;27.824;2023-09-18T06:37:53;4.60;;;3.50;;
63089;SDS011;49174;43.198;27.824;2023-09-18T06:40:24;7.07;;;4.10;;
63089;SDS011;49174;43.198;27.824;2023-09-18T06:42:51;7.45;;;3.75;;
63089;SDS011;49174;43.198;27.824;2023-09-18T06:45:17;5.22;;;3.50;;
63089;SDS011;49174;43.198;27.824;2023-09-18T06:47:43;5.93;;;3.58;;
63089;SDS011;49174;43.198;27.824;2023-09-18T06:50:08;4.50;;;3.20;;
63089;SDS011;49174;43.198;27.824;2023-09-18T06:52:35;4.90;;;3.88;;
63089;SDS011;49174;43.198;27.824;2023-09-18T06:55:00;5.25;;;3.45;;
63089;SDS011;49174;43.198;27.824;2023-09-18T06:57:26;6.63;;;3.17;;
63089;SDS011;49174;43.198;27.824;2023-09-18T06:59:52;5.72;;;3.50;;
63089;SDS011;49174;43.198;27.824;2023-09-18T07:02:18;4.35;;;2.78;;
63089;SDS011;49174;43.198;27.824;2023-09-18T07:04:44;8.13;;;3.30;;
63089;SDS011;49174;43.198;27.824;2023-09-18T07:07:12;6.43;;;3.40;;
63089;SDS011;49174;43.198;27.824;2023-09-18T07:09:39;6.53;;;3.08;;
63089;SDS011;49174;43.198;27.824;2023-09-18T07:12:08;15.43;;;3.47;;
63089;SDS011;49174;43.198;27.824;2023-09-18T07:14:37;5.20;;;3.00;;
63089;SDS011;49174;43.198;27.824;2023-09-18T07:17:03;5.63;;;3.05;;
63089;SDS011;49174;43.198;27.824;2023-09-18T07:19:29;5.97;;;3.22;;
63089;SDS011;49174;43.198;27.824;2023-09-18T07:21:55;5.70;;;3.08;;
63089;SDS011;49174;43.198;27.824;2023-09-18T07:24:21;4.43;;;3.05;;
63089;SDS011;49174;43.198;27.824;2023-09-18T07:26:46;4.93;;;2.65;;
63089;SDS011;49174;43.198;27.824;2023-09-18T07:29:14;4.53;;;2.83;;
63089;SDS011;49174;43.198;27.824;2023-09-18T07:31:41;4.30;;;2.88;;
63089;SDS011;49174;43.198;27.824;2023-09-18T07:34:07;6.15;;;2.88;;
63089;SDS011;49174;43.198;27.824;2023-09-18T07:36:33;4.72;;;2.88;;
63089;SDS011;49174;43.198;27.824;2023-09-18T07:38:58;9.90;;;3.13;;
63089;SDS011;49174;43.198;27.824;2023-09-18T07:41:24;7.35;;;3.15;;
63089;SDS011;49174;43.198;27.824;2023-09-18T07:43:50;4.93;;;2.88;;
63089;SDS011;49174;43.198;27.824;2023-09-18T07:46:16;6.25;;;2.67;;
63089;SDS011;49174;43.198;27.824;2023-09-18T07:48:42;6.30;;;2.67;;
63089;SDS011;49174;43.198;27.824;2023-09-18T07:51:10;7.40;;;2.95;;
63089;SDS011;49174;43.198;27.824;2023-09-18T07:53:41;5.25;;;2.95;;
63089;SDS011;49174;43.198;27.824;2023-09-18T07:56:07;3.78;;;2.28;;
63089;SDS011;49174;43.198;27.824;2023-09-18T07:58:33;5.97;;;2.67;;
63089;SDS011;49174;43.198;27.824;2023-09-18T08:01:04;5.93;;;2.45;;
63089;SDS011;49174;43.198;27.824;2023-09-18T08:03:32;3.90;;;2.33;;
63089;SDS011;49174;43.198;27.824;2023-09-18T08:05:58;3.47;;;2.03;;
63089;SDS011;49174;43.198;27.824;2023-09-18T08:08:23;5.93;;;2.22;;
63089;SDS011;49174;43.198;27.824;2023-09-18T08:10:50;3.88;;;2.38;;
63089;SDS011;49174;43.198;27.824;2023-09-18T08:13:16;4.63;;;2.38;;
63089;SDS011;49174;43.198;27.824;2023-09-18T08:15:42;6.47;;;2.10;;
63089;SDS011;49174;43.198;27.824;2023-09-18T08:18:09;4.32;;;2.35;;
63089;SDS011;49174;43.198;27.824;2023-09-18T08:20:42;4.32;;;2.10;;
63089;SDS011;49174;43.198;27.824;2023-09-18T08:23:08;5.28;;;2.03;;
63089;SDS011;49174;43.198;27.824;2023-09-18T08:25:34;3.53;;;1.65;;
63089;SDS011;49174;43.198;27.824;2023-09-18T08:28:01;4.63;;;2.08;;
63089;SDS011;49174;43.198;27.824;2023-09-18T08:30:28;6.93;;;2.58;;
63089;SDS011;49174;43.198;27.824;2023-09-18T08:32:54;3.35;;;2.35;;
63089;SDS011;49174;43.198;27.824;2023-09-18T08:35:20;5.32;;;2.38;;
63089;SDS011;49174;43.198;27.824;2023-09-18T08:37:47;3.78;;;2.38;;
63089;SDS011;49174;43.198;27.824;2023-09-18T08:40:13;7.45;;;2.50;;
63089;SDS011;49174;43.198;27.824;2023-09-18T08:42:46;3.53;;;2.50;;
63089;SDS011;49174;43.198;27.824;2023-09-18T08:45:22;6.15;;;2.15;;
63089;SDS011;49174;43.198;27.824;2023-09-18T08:47:52;6.75;;;2.00;;
63089;SDS011;49174;43.198;27.824;2023-09-18T08:50:20;5.05;;;2.30;;
63089;SDS011;49174;43.198;27.824;2023-09-18T08:52:47;4.85;;;2.38;;
63089;SDS011;49174;43.198;27.824;2023-09-18T08:55:15;4.03;;;2.47;;
63089;SDS011;49174;43.198;27.824;2023-09-18T08:57:42;4.05;;;2.47;;
63089;SDS011;49174;43.198;27.824;2023-09-18T09:00:09;4.43;;;2.42;;
63089;SDS011;49174;43.198;27.824;2023-09-18T09:02:41;3.17;;;2.40;;
63089;SDS011;49174;43.198;27.824;2023-09-18T09:05:07;5.70;;;2.13;;
63089;SDS011;49174;43.198;27.824;2023-09-18T09:07:32;4.18;;;2.20;;
63089;SDS011;49174;43.198;27.824;2023-09-18T09:09:58;2.90;;;2.00;;
63089;SDS011;49174;43.198;27.824;2023-09-18T09:15:19;4.93;;;2.42;;
63089;SDS011;49174;43.198;27.824;2023-09-18T09:18:06;3.50;;;2.50;;
63089;SDS011;49174;43.198;27.824;2023-09-18T09:20:33;6.80;;;2.83;;
63089;SDS011;49174;43.198;27.824;2023-09-18T09:23:04;3.60;;;2.45;;
63089;SDS011;49174;43.198;27.824;2023-09-18T09:25:32;4.00;;;2.75;;
63089;SDS011;49174;43.198;27.824;2023-09-18T09:27:58;4.80;;;2.53;;
63089;SDS011;49174;43.198;27.824;2023-09-18T09:30:31;4.00;;;2.53;;
63089;SDS011;49174;43.198;27.824;2023-09-18T09:32:58;4.32;;;2.60;;
63089;SDS011;49174;43.198;27.824;2023-09-18T09:35:26;5.57;;;2.40;;
63089;SDS011;49174;43.198;27.824;2023-09-18T09:38:11;3.30;;;2.20;;
63089;SDS011;49174;43.198;27.824;2023-09-18T09:40:41;4.90;;;2.15;;
63089;SDS011;49174;43.198;27.824;2023-09-18T09:43:09;2.95;;;2.13;;
63089;SDS011;49174;43.198;27.824;2023-09-18T09:45:38;3.67;;;2.42;;
63089;SDS011;49174;43.198;27.824;2023-09-18T09:48:06;5.57;;;2.35;;
63089;SDS011;49174;43.198;27.824;2023-09-18T09:50:32;3.33;;;2.45;;
63089;SDS011;49174;43.198;27.824;2023-09-18T09:52:59;4.25;;;2.70;;
63089;SDS011;49174;43.198;27.824;2023-09-18T09:55:28;4.00;;;2.20;;
63089;SDS011;49174;43.198;27.824;2023-09-18T09:57:59;4.28;;;2.72;;
63089;SDS011;49174;43.198;27.824;2023-09-18T10:03:08;3.85;;;2.63;;
63089;SDS011;49174;43.198;27.824;2023-09-18T10:05:36;3.60;;;2.83;;
63089;SDS011;49174;43.198;27.824;2023-09-18T10:08:07;4.25;;;2.20;;
63089;SDS011;49174;43.198;27.824;2023-09-18T10:15:40;5.32;;;1.98;;
63089;SDS011;49174;43.198;27.824;2023-09-18T10:18:13;3.00;;;1.90;;
63089;SDS011;49174;43.198;27.824;2023-09-18T10:20:54;4.35;;;2.20;;
63089;SDS011;49174;43.198;27.824;2023-09-18T10:26:22;3.95;;;1.95;;
63089;SDS011;49174;43.198;27.824;2023-09-18T10:28:58;2.83;;;2.00;;
63089;SDS011;49174;43.198;27.824;2023-09-18T10:31:28;5.43;;;1.95;;
63089;SDS011;49174;43.198;27.824;2023-09-18T10:33:55;2.63;;;1.88;;
63089;SDS011;49174;43.198;27.824;2023-09-18T10:36:23;2.35;;;1.63;;
63089;SDS011;49174;43.198;27.824;2023-09-18T10:38:50;7.13;;;2.13;;
63089;SDS011;49174;43.198;27.824;2023-09-18T10:41:19;2.40;;;1.65;;
63089;SDS011;49174;43.198;27.824;2023-09-18T10:43:46;4.47;;;2.67;;
63089;SDS011;49174;43.198;27.824;2023-09-18T10:46:15;5.10;;;2.47;;
63089;SDS011;49174;43.198;27.824;2023-09-18T10:48:42;4.28;;;2.05;;
63089;SDS011;49174;43.198;27.824;2023-09-18T10:51:10;6.20;;;1.98;;
63089;SDS011;49174;43.198;27.824;2023-09-18T10:53:40;3.05;;;2.00;;
63089;SDS011;49174;43.198;27.824;2023-09-18T10:56:06;3.88;;;1.73;;
63089;SDS011;49174;43.198;27.824;2023-09-18T10:58:32;3.05;;;1.75;;
63089;SDS011;49174;43.198;27.824;2023-09-18T11:01:04;2.90;;;2.20;;
63089;SDS011;49174;43.198;27.824;2023-09-18T11:03:32;2.45;;;1.70;;
63089;SDS011;49174;43.198;27.824;2023-09-18T11:06:05;5.25;;;1.90;;
63089;SDS011;49174;43.198;27.824;2023-09-18T11:08:33;4.03;;;2.00;;
63089;SDS011;49174;43.198;27.824;2023-09-18T11:11:01;5.20;;;2.28;;
63089;SDS011;49174;43.198;27.824;2023-09-18T11:13:41;5.20;;;2.25;;
63089;SDS011;49174;43.198;27.824;2023-09-18T11:16:14;5.18;;;2.70;;
63089;SDS011;49174;43.198;27.824;2023-09-18T11:18:53;3.03;;;1.80;;
63089;SDS011;49174;43.198;27.824;2023-09-18T11:21:31;4.20;;;1.90;;
63089;SDS011;49174;43.198;27.824;2023-09-18T11:24:07;2.90;;;1.90;;
63089;SDS011;49174;43.198;27.824;2023-09-18T11:26:41;3.53;;;2.03;;
63089;SDS011;49174;43.198;27.824;2023-09-18T11:29:09;2.97;;;1.80;;
63089;SDS011;49174;43.198;27.824;2023-09-18T11:31:43;3.58;;;2.05;;
63089;SDS011;49174;43.198;27.824;2023-09-18T11:34:23;3.90;;;2.25;;
63089;SDS011;49174;43.198;27.824;2023-09-18T11:36:57;4.75;;;2.17;;
63089;SDS011;49174;43.198;27.824;2023-09-18T11:39:35;3.92;;;2.38;;
63089;SDS011;49174;43.198;27.824;2023-09-18T11:42:09;3.47;;;1.98;;
63089;SDS011;49174;43.198;27.824;2023-09-18T11:44:36;2.65;;;2.05;;
63089;SDS011;49174;43.198;27.824;2023-09-18T11:47:10;3.15;;;2.10;;
63089;SDS011;49174;43.198;27.824;2023-09-18T11:52:18;4.45;;;1.92;;
63089;SDS011;49174;43.198;27.824;2023-09-18T11:54:44;3.92;;;1.80;;
63089;SDS011;49174;43.198;27.824;2023-09-18T11:57:15;5.30;;;2.03;;
63089;SDS011;49174;43.198;27.824;2023-09-18T11:59:41;3.63;;;1.92;;
63089;SDS011;49174;43.198;27.824;2023-09-18T12:02:08;4.75;;;2.35;;
63089;SDS011;49174;43.198;27.824;2023-09-18T12:04:45;3.70;;;2.45;;
63089;SDS011;49174;43.198;27.824;2023-09-18T12:07:12;2.55;;;2.10;;
63089;SDS011;49174;43.198;27.824;2023-09-18T12:09:38;3.38;;;2.13;;
63089;SDS011;49174;43.198;27.824;2023-09-18T12:12:05;4.13;;;2.45;;
63089;SDS011;49174;43.198;27.824;2023-09-18T12:14:32;3.70;;;1.83;;
63089;SDS011;49174;43.198;27.824;2023-09-18T12:16:59;4.05;;;2.10;;
63089;SDS011;49174;43.198;27.824;2023-09-18T12:19:26;3.92;;;1.98;;
63089;SDS011;49174;43.198;27.824;2023-09-18T12:21:51;6.60;;;2.10;;
63089;SDS011;49174;43.198;27.824;2023-09-18T12:24:23;4.43;;;2.35;;
63089;SDS011;49174;43.198;27.824;2023-09-18T12:26:53;5.45;;;2.40;;
63089;SDS011;49174;43.198;27.824;2023-09-18T12:29:20;4.10;;;2.30;;
63089;SDS011;49174;43.198;27.824;2023-09-18T12:31:46;4.15;;;2.42;;
63089;SDS011;49174;43.198;27.824;2023-09-18T12:34:16;3.42;;;2.20;;
63089;SDS011;49174;43.198;27.824;2023-09-18T12:36:46;2.80;;;1.95;;
63089;SDS011;49174;43.198;27.824;2023-09-18T12:39:13;3.55;;;2.00;;
63089;SDS011;49174;43.198;27.824;2023-09-18T12:41:41;5.78;;;2.28;;
63089;SDS011;49174;43.198;27.824;2023-09-18T12:44:09;3.35;;;2.45;;
63089;SDS011;49174;43.198;27.824;2023-09-18T12:46:35;3.47;;;2.13;;
63089;SDS011;49174;43.198;27.824;2023-09-18T12:49:18;3.80;;;2.38;;
63089;SDS011;49174;43.198;27.824;2023-09-18T12:51:58;5.32;;;2.50;;
63089;SDS011;49174;43.198;27.824;2023-09-18T12:54:43;3.95;;;2.03;;
63089;SDS011;49174;43.198;27.824;2023-09-18T12:57:12;3.53;;;1.95;;
63089;SDS011;49174;43.198;27.824;2023-09-18T12:59:41;3.42;;;2.35;;
63089;SDS011;49174;43.198;27.824;2023-09-18T13:02:07;3.50;;;2.28;;
63089;SDS011;49174;43.198;27.824;2023-09-18T13:04:34;4.75;;;1.98;;
63089;SDS011;49174;43.198;27.824;2023-09-18T13:09:34;3.13;;;2.00;;
63089;SDS011;49174;43.198;27.824;2023-09-18T13:12:03;3.88;;;2.47;;
63089;SDS011;49174;43.198;27.824;2023-09-18T13:14:29;5.40;;;2.42;;
63089;SDS011;49174;43.198;27.824;2023-09-18T13:17:01;5.60;;;2.05;;
63089;SDS011;49174;43.198;27.824;2023-09-18T13:19:30;3.53;;;2.00;;
63089;SDS011;49174;43.198;27.824;2023-09-18T13:21:56;5.22;;;2.90;;
63089;SDS011;49174;43.198;27.824;2023-09-18T13:24:28;6.38;;;2.45;;
63089;SDS011;49174;43.198;27.824;2023-09-18T13:26:55;3.78;;;2.50;;
63089;SDS011;49174;43.198;27.824;2023-09-18T13:29:23;3.65;;;2.45;;
63089;SDS011;49174;43.198;27.824;2023-09-18T13:31:49;6.22;;;2.53;;
63089;SDS011;49174;43.198;27.824;2023-09-18T13:34:15;5.50;;;2.33;;
63089;SDS011;49174;43.198;27.824;2023-09-18T13:36:43;5.32;;;2.03;;
63089;SDS011;49174;43.198;27.824;2023-09-18T13:39:12;4.30;;;2.15;;
63089;SDS011;49174;43.198;27.824;2023-09-18T13:41:42;5.55;;;2.28;;
63089;SDS011;49174;43.198;27.824;2023-09-18T13:44:08;3.35;;;2.33;;
63089;SDS011;49174;43.198;27.824;2023-09-18T13:46:35;2.83;;;2.28;;
63089;SDS011;49174;43.198;27.824;2023-09-18T13:49:04;3.75;;;2.47;;
63089;SDS011;49174;43.198;27.824;2023-09-18T13:51:31;3.22;;;2.30;;
63089;SDS011;49174;43.198;27.824;2023-09-18T13:53:57;6.85;;;2.50;;
63089;SDS011;49174;43.198;27.824;2023-09-18T13:56:23;3.45;;;2.45;;
63089;SDS011;49174;43.198;27.824;2023-09-18T13:58:53;3.92;;;2.40;;
63089;SDS011;49174;43.198;27.824;2023-09-18T14:01:22;5.28;;;2.80;;
63089;SDS011;49174;43.198;27.824;2023-09-18T14:03:50;3.30;;;2.17;;
63089;SDS011;49174;43.198;27.824;2023-09-18T14:06:16;4.05;;;2.13;;
63089;SDS011;49174;43.198;27.824;2023-09-18T14:08:41;4.80;;;2.75;;
63089;SDS011;49174;43.198;27.824;2023-09-18T14:11:06;5.38;;;2.60;;
63089;SDS011;49174;43.198;27.824;2023-09-18T14:13:32;7.07;;;2.47;;
63089;SDS011;49174;43.198;27.824;2023-09-18T14:15:58;2.97;;;1.90;;
63089;SDS011;49174;43.198;27.824;2023-09-18T14:18:24;5.25;;;2.72;;
63089;SDS011;49174;43.198;27.824;2023-09-18T14:20:50;7.18;;;2.80;;
63089;SDS011;49174;43.198;27.824;2023-09-18T14:23:15;5.82;;;2.40;;
63089;SDS011;49174;43.198;27.824;2023-09-18T14:25:41;5.78;;;2.72;;
63089;SDS011;49174;43.198;27.824;2023-09-18T14:28:06;3.38;;;2.60;;
63089;SDS011;49174;43.198;27.824;2023-09-18T14:30:32;3.70;;;2.70;;
63089;SDS011;49174;43.198;27.824;2023-09-18T14:33:02;5.38;;;2.20;;
63089;SDS011;49174;43.198;27.824;2023-09-18T14:35:27;3.10;;;2.33;;
63089;SDS011;49174;43.198;27.824;2023-09-18T14:37:55;4.95;;;2.30;;
63089;SDS011;49174;43.198;27.824;2023-09-18T14:40:21;5.78;;;3.20;;
63089;SDS011;49174;43.198;27.824;2023-09-18T14:42:46;3.25;;;2.35;;
63089;SDS011;49174;43.198;27.824;2023-09-18T14:45:12;4.20;;;2.67;;
63089;SDS011;49174;43.198;27.824;2023-09-18T14:47:39;5.05;;;2.85;;
63089;SDS011;49174;43.198;27.824;2023-09-18T14:50:05;5.88;;;2.70;;
63089;SDS011;49174;43.198;27.824;2023-09-18T14:52:31;5.65;;;2.97;;
63089;SDS011;49174;43.198;27.824;2023-09-18T14:54:57;3.28;;;2.42;;
63089;SDS011;49174;43.198;27.824;2023-09-18T14:57:25;5.68;;;2.63;;